sensor_id;sensor_type;location;lat;lon;timestamp;pressure;altitude;pressure_sealevel;temperature;humidity
52032;BME280;38044;45.148;39.604;2023-08-24T00:01:18;100995.72;;;19.44;70.94
52032;BME280;38044;45.148;39.604;2023-08-24T00:03:44;101014.22;;;19.39;71.15
52032;BME280;38044;45.148;39.604;2023-08-24T00:06:14;101004.56;;;19.29;71.00
52032;BME280;38044;45.148;39.604;2023-08-24T00:08:40;101011.13;;;19.28;71.01
52032;BME280;38044;45.148;39.604;2023-08-24T00:11:06;101006.59;;;19.20;70.64
52032;BME280;38044;45.148;39.604;2023-08-24T00:13:33;101019.88;;;19.21;70.78
52032;BME280;38044;45.148;39.604;2023-08-24T00:15:59;101014.75;;;19.07;71.39
52032;BME280;38044;45.148;39.604;2023-08-24T00:18:25;101012.28;;;19.15;70.98
52032;BME280;38044;45.148;39.604;2023-08-24T00:20:51;101014.31;;;19.18;70.50
52032;BME280;38044;45.148;39.604;2023-08-24T00:23:17;101008.38;;;19.03;71.13
52032;BME280;38044;45.148;39.604;2023-08-24T00:25:43;101014.75;;;19.07;71.00
52032;BME280;38044;45.148;39.604;2023-08-24T00:28:10;101016.28;;;18.96;71.46
52032;BME280;38044;45.148;39.604;2023-08-24T00:30:36;101014.28;;;19.05;70.69
52032;BME280;38044;45.148;39.604;2023-08-24T00:33:03;101009.97;;;19.04;70.93
52032;BME280;38044;45.148;39.604;2023-08-24T00:35:30;101003.81;;;18.95;71.05
52032;BME280;38044;45.148;39.604;2023-08-24T00:37:56;101007.22;;;18.92;71.33
52032;BME280;38044;45.148;39.604;2023-08-24T00:40:23;101013.09;;;18.94;71.48
52032;BME280;38044;45.148;39.604;2023-08-24T00:42:50;101010.25;;;18.90;71.25
52032;BME280;38044;45.148;39.604;2023-08-24T00:45:17;101017.53;;;18.86;71.33
52032;BME280;38044;45.148;39.604;2023-08-24T00:47:46;101009.63;;;18.73;71.94
52032;BME280;38044;45.148;39.604;2023-08-24T00:50:12;101011.44;;;18.68;72.22
52032;BME280;38044;45.148;39.604;2023-08-24T00:52:41;101015.94;;;18.64;73.03
52032;BME280;38044;45.148;39.604;2023-08-24T00:55:07;101010.16;;;18.66;72.54
52032;BME280;38044;45.148;39.604;2023-08-24T00:57:35;101010.97;;;18.66;72.86
52032;BME280;38044;45.148;39.604;2023-08-24T01:00:04;101015.22;;;18.55;73.15
52032;BME280;38044;45.148;39.604;2023-08-24T01:02:32;101003.66;;;18.58;72.51
52032;BME280;38044;45.148;39.604;2023-08-24T01:04:58;101017.91;;;18.43;73.35
52032;BME280;38044;45.148;39.604;2023-08-24T01:07:24;101013.13;;;18.40;73.58
52032;BME280;38044;45.148;39.604;2023-08-24T01:09:51;101010.72;;;18.38;73.07
52032;BME280;38044;45.148;39.604;2023-08-24T01:15:02;101007.13;;;18.26;73.04
52032;BME280;38044;45.148;39.604;2023-08-24T01:17:31;101023.72;;;18.12;73.89
52032;BME280;38044;45.148;39.604;2023-08-24T01:19:58;101015.75;;;18.07;73.79
52032;BME280;38044;45.148;39.604;2023-08-24T01:27:34;101019.06;;;18.12;73.48
52032;BME280;38044;45.148;39.604;2023-08-24T01:30:02;101031.47;;;18.01;74.08
52032;BME280;38044;45.148;39.604;2023-08-24T01:32:32;101015.19;;;17.92;74.28
52032;BME280;38044;45.148;39.604;2023-08-24T01:35:07;101021.31;;;17.89;74.07
52032;BME280;38044;45.148;39.604;2023-08-24T01:37:34;101024.06;;;17.81;74.52
52032;BME280;38044;45.148;39.604;2023-08-24T01:40:10;101032.22;;;17.81;74.56
52032;BME280;38044;45.148;39.604;2023-08-24T01:42:51;101028.53;;;17.76;74.33
52032;BME280;38044;45.148;39.604;2023-08-24T01:45:18;101022.13;;;17.81;74.34
52032;BME280;38044;45.148;39.604;2023-08-24T01:47:46;101030.97;;;17.69;74.44
52032;BME280;38044;45.148;39.604;2023-08-24T01:50:13;101031.09;;;17.82;73.98
52032;BME280;38044;45.148;39.604;2023-08-24T01:52:40;101026.00;;;17.71;74.12
52032;BME280;38044;45.148;39.604;2023-08-24T01:55:07;101028.13;;;17.66;74.18
52032;BME280;38044;45.148;39.604;2023-08-24T01:57:33;101036.28;;;17.66;74.26
52032;BME280;38044;45.148;39.604;2023-08-24T01:59:59;101038.69;;;17.59;74.26
52032;BME280;38044;45.148;39.604;2023-08-24T02:02:25;101028.34;;;17.52;74.88
52032;BME280;38044;45.148;39.604;2023-08-24T02:04:51;101023.56;;;17.49;74.34
52032;BME280;38044;45.148;39.604;2023-08-24T02:07:17;101036.16;;;17.53;74.67
52032;BME280;38044;45.148;39.604;2023-08-24T02:09:43;101033.94;;;17.47;74.63
52032;BME280;38044;45.148;39.604;2023-08-24T02:12:09;101032.81;;;17.48;74.44
52032;BME280;38044;45.148;39.604;2023-08-24T02:14:35;101038.47;;;17.34;75.08
52032;BME280;38044;45.148;39.604;2023-08-24T02:17:01;101030.81;;;17.27;75.52
52032;BME280;38044;45.148;39.604;2023-08-24T02:19:27;101041.66;;;17.36;75.23
52032;BME280;38044;45.148;39.604;2023-08-24T02:21:52;101038.75;;;17.41;75.05
52032;BME280;38044;45.148;39.604;2023-08-24T02:24:18;101030.63;;;17.32;74.95
52032;BME280;38044;45.148;39.604;2023-08-24T02:26:44;101039.38;;;17.47;74.72
52032;BME280;38044;45.148;39.604;2023-08-24T02:29:10;101041.78;;;17.40;74.99
52032;BME280;38044;45.148;39.604;2023-08-24T02:31:36;101038.13;;;17.36;75.22
52032;BME280;38044;45.148;39.604;2023-08-24T02:34:02;101047.22;;;17.40;74.83
52032;BME280;38044;45.148;39.604;2023-08-24T02:36:28;101040.19;;;17.39;75.35
52032;BME280;38044;45.148;39.604;2023-08-24T02:38:56;101047.22;;;17.40;75.12
52032;BME280;38044;45.148;39.604;2023-08-24T02:41:22;101047.53;;;17.47;74.79
52032;BME280;38044;45.148;39.604;2023-08-24T02:43:48;101048.81;;;17.49;75.16
52032;BME280;38044;45.148;39.604;2023-08-24T02:46:13;101051.19;;;17.51;74.74
52032;BME280;38044;45.148;39.604;2023-08-24T02:48:39;101042.75;;;17.44;74.82
52032;BME280;38044;45.148;39.604;2023-08-24T02:51:06;101055.66;;;17.55;75.00
52032;BME280;38044;45.148;39.604;2023-08-24T02:53:32;101048.13;;;17.61;74.70
52032;BME280;38044;45.148;39.604;2023-08-24T02:55:58;101066.97;;;17.66;74.85
52032;BME280;38044;45.148;39.604;2023-08-24T02:58:24;101065.31;;;17.83;73.90
52032;BME280;38044;45.148;39.604;2023-08-24T03:00:51;101051.53;;;17.88;72.70
52032;BME280;38044;45.148;39.604;2023-08-24T03:03:17;101048.16;;;17.91;72.62
52032;BME280;38044;45.148;39.604;2023-08-24T03:08:19;101058.28;;;17.82;73.38
52032;BME280;38044;45.148;39.604;2023-08-24T03:10:45;101064.38;;;17.78;73.75
52032;BME280;38044;45.148;39.604;2023-08-24T03:13:11;101058.59;;;17.89;73.05
52032;BME280;38044;45.148;39.604;2023-08-24T03:15:37;101060.06;;;18.07;72.33
52032;BME280;38044;45.148;39.604;2023-08-24T03:18:04;101062.88;;;18.19;72.05
52032;BME280;38044;45.148;39.604;2023-08-24T03:20:30;101068.31;;;18.19;71.79
52032;BME280;38044;45.148;39.604;2023-08-24T03:22:56;101056.50;;;18.15;71.92
52032;BME280;38044;45.148;39.604;2023-08-24T03:25:23;101062.88;;;18.19;72.30
52032;BME280;38044;45.148;39.604;2023-08-24T03:27:49;101055.09;;;18.09;72.20
52032;BME280;38044;45.148;39.604;2023-08-24T03:30:16;101059.03;;;18.20;71.62
52032;BME280;38044;45.148;39.604;2023-08-24T03:32:42;101069.06;;;18.29;72.11
52032;BME280;38044;45.148;39.604;2023-08-24T03:35:08;101067.25;;;18.54;71.59
52032;BME280;38044;45.148;39.604;2023-08-24T03:37:34;101066.63;;;18.78;70.78
52032;BME280;38044;45.148;39.604;2023-08-24T03:40:01;101058.41;;;18.99;70.21
52032;BME280;38044;45.148;39.604;2023-08-24T03:42:28;101073.16;;;19.31;69.02
52032;BME280;38044;45.148;39.604;2023-08-24T03:44:55;101065.69;;;19.40;68.67
52032;BME280;38044;45.148;39.604;2023-08-24T03:47:21;101078.78;;;19.59;67.84
52032;BME280;38044;45.148;39.604;2023-08-24T03:49:47;101076.41;;;19.57;67.95
52032;BME280;38044;45.148;39.604;2023-08-24T03:52:14;101081.53;;;19.71;67.95
52032;BME280;38044;45.148;39.604;2023-08-24T03:54:40;101061.44;;;19.76;67.34
52032;BME280;38044;45.148;39.604;2023-08-24T03:57:06;101075.28;;;20.08;67.24
52032;BME280;38044;45.148;39.604;2023-08-24T03:59:33;101076.25;;;20.40;65.82
52032;BME280;38044;45.148;39.604;2023-08-24T04:02:00;101079.44;;;20.82;65.56
52032;BME280;38044;45.148;39.604;2023-08-24T04:04:28;101077.31;;;21.48;63.81
52032;BME280;38044;45.148;39.604;2023-08-24T04:06:54;101084.47;;;22.35;61.13
52032;BME280;38044;45.148;39.604;2023-08-24T04:09:36;101074.88;;;23.23;59.01
52032;BME280;38044;45.148;39.604;2023-08-24T04:12:02;101080.81;;;23.97;56.75
52032;BME280;38044;45.148;39.604;2023-08-24T04:14:29;101084.59;;;24.42;55.21
52032;BME280;38044;45.148;39.604;2023-08-24T04:16:55;101080.19;;;24.64;54.60
52032;BME280;38044;45.148;39.604;2023-08-24T04:19:21;101075.44;;;25.32;53.73
52032;BME280;38044;45.148;39.604;2023-08-24T04:21:47;101084.84;;;26.35;51.37
52032;BME280;38044;45.148;39.604;2023-08-24T04:24:13;101081.28;;;27.54;48.91
52032;BME280;38044;45.148;39.604;2023-08-24T04:26:39;101084.53;;;28.83;46.03
52032;BME280;38044;45.148;39.604;2023-08-24T04:29:05;101075.28;;;29.11;45.08
52032;BME280;38044;45.148;39.604;2023-08-24T04:31:31;101077.53;;;29.31;44.72
52032;BME280;38044;45.148;39.604;2023-08-24T04:33:57;101084.59;;;29.35;44.34
52032;BME280;38044;45.148;39.604;2023-08-24T04:36:23;101087.88;;;30.13;43.08
52032;BME280;38044;45.148;39.604;2023-08-24T04:38:48;101095.06;;;31.06;41.77
52032;BME280;38044;45.148;39.604;2023-08-24T04:41:14;101079.94;;;31.85;39.91
52032;BME280;38044;45.148;39.604;2023-08-24T04:43:40;101088.94;;;31.69;39.86
52032;BME280;38044;45.148;39.604;2023-08-24T04:46:06;101088.84;;;32.60;39.68
52032;BME280;38044;45.148;39.604;2023-08-24T04:48:32;101082.69;;;33.21;38.17
52032;BME280;38044;45.148;39.604;2023-08-24T04:51:01;101087.50;;;33.99;37.40
52032;BME280;38044;45.148;39.604;2023-08-24T04:53:27;101084.22;;;33.87;36.98
52032;BME280;38044;45.148;39.604;2023-08-24T04:55:53;101076.97;;;34.48;36.37
52032;BME280;38044;45.148;39.604;2023-08-24T04:58:19;101080.59;;;34.33;36.17
52032;BME280;38044;45.148;39.604;2023-08-24T05:00:44;101075.25;;;34.51;36.46
52032;BME280;38044;45.148;39.604;2023-08-24T05:03:10;101071.25;;;34.52;36.65
52032;BME280;38044;45.148;39.604;2023-08-24T05:05:36;101071.06;;;34.59;36.32
52032;BME280;38044;45.148;39.604;2023-08-24T05:08:02;101068.19;;;33.92;36.95
52032;BME280;38044;45.148;39.604;2023-08-24T05:10:32;101065.72;;;33.94;37.11
52032;BME280;38044;45.148;39.604;2023-08-24T05:12:58;101065.94;;;34.16;37.01
52032;BME280;38044;45.148;39.604;2023-08-24T05:15:23;101067.16;;;35.33;35.64
52032;BME280;38044;45.148;39.604;2023-08-24T05:17:49;101065.34;;;35.87;34.83
52032;BME280;38044;45.148;39.604;2023-08-24T05:20:16;101067.25;;;35.55;35.50
52032;BME280;38044;45.148;39.604;2023-08-24T05:22:42;101066.47;;;35.42;35.90
52032;BME280;38044;45.148;39.604;2023-08-24T05:25:07;101073.25;;;35.54;34.42
52032;BME280;38044;45.148;39.604;2023-08-24T05:27:33;101065.34;;;35.87;35.28
52032;BME280;38044;45.148;39.604;2023-08-24T05:30:00;101067.25;;;36.12;34.42
52032;BME280;38044;45.148;39.604;2023-08-24T05:32:25;101073.38;;;36.82;33.89
52032;BME280;38044;45.148;39.604;2023-08-24T05:34:51;101065.22;;;36.13;34.55
52032;BME280;38044;45.148;39.604;2023-08-24T05:37:16;101072.66;;;36.06;35.58
52032;BME280;38044;45.148;39.604;2023-08-24T05:39:42;101084.88;;;36.22;35.10
52032;BME280;38044;45.148;39.604;2023-08-24T05:42:08;101073.97;;;36.15;34.40
52032;BME280;38044;45.148;39.604;2023-08-24T05:44:34;101076.50;;;36.75;33.86
52032;BME280;38044;45.148;39.604;2023-08-24T05:46:59;101075.25;;;36.76;33.95
52032;BME280;38044;45.148;39.604;2023-08-24T05:49:25;101078.13;;;36.94;33.25
52032;BME280;38044;45.148;39.604;2023-08-24T05:51:51;101071.94;;;36.68;32.95
52032;BME280;38044;45.148;39.604;2023-08-24T05:54:17;101073.50;;;36.69;32.33
52032;BME280;38044;45.148;39.604;2023-08-24T05:56:45;101069.34;;;36.52;32.92
52032;BME280;38044;45.148;39.604;2023-08-24T05:59:11;101070.94;;;36.93;33.12
52032;BME280;38044;45.148;39.604;2023-08-24T06:01:37;101070.34;;;37.48;32.28
52032;BME280;38044;45.148;39.604;2023-08-24T06:04:09;101078.59;;;37.79;31.49
52032;BME280;38044;45.148;39.604;2023-08-24T06:06:35;101076.06;;;37.35;32.14
52032;BME280;38044;45.148;39.604;2023-08-24T06:09:01;101070.47;;;37.45;32.34
52032;BME280;38044;45.148;39.604;2023-08-24T06:11:29;101074.69;;;38.32;31.65
52032;BME280;38044;45.148;39.604;2023-08-24T06:13:54;101073.19;;;38.64;30.67
52032;BME280;38044;45.148;39.604;2023-08-24T06:16:20;101090.31;;;37.87;31.55
52032;BME280;38044;45.148;39.604;2023-08-24T06:18:46;101087.56;;;38.57;31.46
52032;BME280;38044;45.148;39.604;2023-08-24T06:21:11;101079.56;;;39.07;30.94
52032;BME280;38044;45.148;39.604;2023-08-24T06:23:38;101082.19;;;39.11;30.83
52032;BME280;38044;45.148;39.604;2023-08-24T06:26:03;101086.28;;;39.34;30.62
52032;BME280;38044;45.148;39.604;2023-08-24T06:28:30;101079.75;;;39.28;30.66
52032;BME280;38044;45.148;39.604;2023-08-24T06:30:55;101077.44;;;39.50;30.23
52032;BME280;38044;45.148;39.604;2023-08-24T06:33:21;101076.03;;;39.22;30.39
52032;BME280;38044;45.148;39.604;2023-08-24T06:35:46;101067.50;;;39.16;30.09
52032;BME280;38044;45.148;39.604;2023-08-24T06:38:12;101073.09;;;38.83;30.43
52032;BME280;38044;45.148;39.604;2023-08-24T06:40:38;101066.94;;;38.69;30.47
52032;BME280;38044;45.148;39.604;2023-08-24T06:43:04;101077.16;;;38.82;30.67
52032;BME280;38044;45.148;39.604;2023-08-24T06:45:30;101076.50;;;38.96;30.88
52032;BME280;38044;45.148;39.604;2023-08-24T06:47:55;101077.38;;;39.74;30.00
52032;BME280;38044;45.148;39.604;2023-08-24T06:50:21;101076.50;;;39.92;29.83
52032;BME280;38044;45.148;39.604;2023-08-24T06:52:47;101078.97;;;39.75;29.94
52032;BME280;38044;45.148;39.604;2023-08-24T06:55:12;101071.53;;;39.63;30.21
52032;BME280;38044;45.148;39.604;2023-08-24T06:57:38;101073.28;;;39.99;29.72
52032;BME280;38044;45.148;39.604;2023-08-24T07:00:04;101069.13;;;40.09;29.22
52032;BME280;38044;45.148;39.604;2023-08-24T07:02:34;101073.75;;;40.57;28.97
52032;BME280;38044;45.148;39.604;2023-08-24T07:05:00;101065.91;;;40.17;28.97
52032;BME280;38044;45.148;39.604;2023-08-24T07:07:26;101068.56;;;39.67;29.81
52032;BME280;38044;45.148;39.604;2023-08-24T07:09:51;101066.03;;;40.22;29.13
52032;BME280;38044;45.148;39.604;2023-08-24T07:12:17;101065.59;;;40.15;28.66
52032;BME280;38044;45.148;39.604;2023-08-24T07:14:43;101063.88;;;40.32;28.89
52032;BME280;38044;45.148;39.604;2023-08-24T07:17:09;101060.75;;;41.10;28.33
52032;BME280;38044;45.148;39.604;2023-08-24T07:19:35;101064.25;;;41.05;28.21
52032;BME280;38044;45.148;39.604;2023-08-24T07:22:00;101062.81;;;40.94;28.25
52032;BME280;38044;45.148;39.604;2023-08-24T07:24:26;101057.59;;;40.87;28.59
52032;BME280;38044;45.148;39.604;2023-08-24T07:26:53;101057.06;;;40.53;28.48
52032;BME280;38044;45.148;39.604;2023-08-24T07:29:20;101058.44;;;40.43;28.26
52032;BME280;38044;45.148;39.604;2023-08-24T07:31:45;101055.84;;;39.71;29.05
52032;BME280;38044;45.148;39.604;2023-08-24T07:34:11;101052.41;;;40.06;28.94
52032;BME280;38044;45.148;39.604;2023-08-24T07:36:36;101063.09;;;40.17;28.82
52032;BME280;38044;45.148;39.604;2023-08-24T07:39:02;101046.19;;;40.61;28.43
52032;BME280;38044;45.148;39.604;2023-08-24T07:41:28;101055.53;;;41.23;27.25
52032;BME280;38044;45.148;39.604;2023-08-24T07:43:54;101050.69;;;40.88;28.01
52032;BME280;38044;45.148;39.604;2023-08-24T07:46:19;101042.94;;;40.33;27.56
52032;BME280;38044;45.148;39.604;2023-08-24T07:48:45;101039.53;;;39.60;29.06
52032;BME280;38044;45.148;39.604;2023-08-24T07:51:10;101039.19;;;39.82;28.82
52032;BME280;38044;45.148;39.604;2023-08-24T07:53:36;101035.13;;;39.83;28.64
52032;BME280;38044;45.148;39.604;2023-08-24T07:56:02;101043.75;;;39.95;28.90
52032;BME280;38044;45.148;39.604;2023-08-24T07:58:28;101044.25;;;40.38;27.57
52032;BME280;38044;45.148;39.604;2023-08-24T08:00:53;101042.28;;;39.70;28.81
52032;BME280;38044;45.148;39.604;2023-08-24T08:03:19;101041.53;;;40.14;28.60
52032;BME280;38044;45.148;39.604;2023-08-24T08:05:46;101033.25;;;40.54;27.89
52032;BME280;38044;45.148;39.604;2023-08-24T08:08:13;101038.72;;;40.58;27.08
52032;BME280;38044;45.148;39.604;2023-08-24T08:10:38;101037.25;;;40.03;27.78
52032;BME280;38044;45.148;39.604;2023-08-24T08:13:04;101027.38;;;40.23;27.58
52032;BME280;38044;45.148;39.604;2023-08-24T08:15:29;101031.53;;;40.92;27.17
52032;BME280;38044;45.148;39.604;2023-08-24T08:17:55;101029.88;;;41.21;26.96
52032;BME280;38044;45.148;39.604;2023-08-24T08:20:21;101034.66;;;41.35;26.95
52032;BME280;38044;45.148;39.604;2023-08-24T08:22:46;101033.03;;;41.29;26.50
52032;BME280;38044;45.148;39.604;2023-08-24T08:25:12;101029.94;;;40.71;27.29
52032;BME280;38044;45.148;39.604;2023-08-24T08:27:37;101026.16;;;40.74;26.84
52032;BME280;38044;45.148;39.604;2023-08-24T08:30:04;101017.88;;;40.35;27.38
52032;BME280;38044;45.148;39.604;2023-08-24T08:32:30;101012.38;;;40.46;27.13
52032;BME280;38044;45.148;39.604;2023-08-24T08:34:55;101013.19;;;41.43;27.28
52032;BME280;38044;45.148;39.604;2023-08-24T08:37:23;101010.50;;;41.08;26.86
52032;BME280;38044;45.148;39.604;2023-08-24T08:39:49;101013.81;;;41.07;26.80
52032;BME280;38044;45.148;39.604;2023-08-24T08:42:14;101019.38;;;40.66;26.04
52032;BME280;38044;45.148;39.604;2023-08-24T08:44:41;101009.56;;;40.61;26.89
52032;BME280;38044;45.148;39.604;2023-08-24T08:47:09;101008.72;;;40.40;25.19
52032;BME280;38044;45.148;39.604;2023-08-24T08:49:37;101006.56;;;40.50;25.66
52032;BME280;38044;45.148;39.604;2023-08-24T08:52:03;101003.88;;;39.96;24.72
52032;BME280;38044;45.148;39.604;2023-08-24T08:54:29;100998.91;;;40.50;24.85
52032;BME280;38044;45.148;39.604;2023-08-24T08:56:54;100998.53;;;40.43;24.21
52032;BME280;38044;45.148;39.604;2023-08-24T08:59:20;100998.66;;;40.19;24.75
52032;BME280;38044;45.148;39.604;2023-08-24T09:01:47;100995.75;;;40.28;24.58
52032;BME280;38044;45.148;39.604;2023-08-24T09:04:13;100997.78;;;40.13;24.27
52032;BME280;38044;45.148;39.604;2023-08-24T09:06:39;100991.91;;;39.72;24.75
52032;BME280;38044;45.148;39.604;2023-08-24T09:09:05;100988.88;;;39.60;26.02
52032;BME280;38044;45.148;39.604;2023-08-24T09:11:32;100982.38;;;39.54;25.55
52032;BME280;38044;45.148;39.604;2023-08-24T09:13:58;100981.31;;;39.52;24.82
52032;BME280;38044;45.148;39.604;2023-08-24T09:16:24;100985.63;;;39.77;25.09
52032;BME280;38044;45.148;39.604;2023-08-24T09:18:54;100977.28;;;39.68;24.82
52032;BME280;38044;45.148;39.604;2023-08-24T09:21:19;100972.63;;;39.64;23.93
52032;BME280;38044;45.148;39.604;2023-08-24T09:23:55;100971.03;;;38.86;25.42
52032;BME280;38044;45.148;39.604;2023-08-24T09:29:16;100967.22;;;38.98;25.13
52032;BME280;38044;45.148;39.604;2023-08-24T09:31:42;100965.91;;;39.23;23.55
52032;BME280;38044;45.148;39.604;2023-08-24T09:34:11;100956.63;;;38.26;24.20
52032;BME280;38044;45.148;39.604;2023-08-24T09:36:37;100954.03;;;38.56;24.59
52032;BME280;38044;45.148;39.604;2023-08-24T09:39:02;100965.81;;;39.17;24.93
52032;BME280;38044;45.148;39.604;2023-08-24T09:41:39;100964.44;;;39.37;23.87
52032;BME280;38044;45.148;39.604;2023-08-24T09:44:05;100959.97;;;39.30;24.62
52032;BME280;38044;45.148;39.604;2023-08-24T09:46:31;100966.00;;;39.38;23.98
52032;BME280;38044;45.148;39.604;2023-08-24T09:48:56;100962.41;;;39.13;23.50
52032;BME280;38044;45.148;39.604;2023-08-24T09:51:25;100963.75;;;38.37;25.26
52032;BME280;38044;45.148;39.604;2023-08-24T09:53:51;100959.44;;;38.93;25.46
52032;BME280;38044;45.148;39.604;2023-08-24T09:56:17;100957.19;;;39.21;24.56
52032;BME280;38044;45.148;39.604;2023-08-24T09:58:43;100957.84;;;39.40;24.65
52032;BME280;38044;45.148;39.604;2023-08-24T10:01:11;100960.53;;;39.34;24.98
52032;BME280;38044;45.148;39.604;2023-08-24T10:03:37;100962.78;;;39.45;25.42
52032;BME280;38044;45.148;39.604;2023-08-24T10:06:05;100957.97;;;39.22;24.85
52032;BME280;38044;45.148;39.604;2023-08-24T10:08:44;100958.13;;;38.46;23.79
52032;BME280;38044;45.148;39.604;2023-08-24T10:11:12;100956.31;;;37.54;24.66
52032;BME280;38044;45.148;39.604;2023-08-24T10:13:48;100960.78;;;37.06;26.65
52032;BME280;38044;45.148;39.604;2023-08-24T10:16:15;100954.47;;;36.65;27.35
52032;BME280;38044;45.148;39.604;2023-08-24T10:18:44;100949.06;;;36.39;27.04
52032;BME280;38044;45.148;39.604;2023-08-24T10:21:12;100952.72;;;36.18;27.14
52032;BME280;38044;45.148;39.604;2023-08-24T10:23:39;100953.59;;;35.61;28.49
52032;BME280;38044;45.148;39.604;2023-08-24T10:26:07;100953.59;;;35.61;30.21
52032;BME280;38044;45.148;39.604;2023-08-24T10:28:33;100953.56;;;35.39;29.44
52032;BME280;38044;45.148;39.604;2023-08-24T10:31:00;100952.38;;;35.28;29.72
52032;BME280;38044;45.148;39.604;2023-08-24T10:33:27;100928.97;;;35.12;30.56
52032;BME280;38044;45.148;39.604;2023-08-24T10:35:54;100939.06;;;34.97;29.44
52032;BME280;38044;45.148;39.604;2023-08-24T10:38:28;100936.41;;;34.81;30.03
52032;BME280;38044;45.148;39.604;2023-08-24T10:41:03;100942.56;;;34.75;29.80
52032;BME280;38044;45.148;39.604;2023-08-24T10:43:37;100925.44;;;34.86;29.93
52032;BME280;38044;45.148;39.604;2023-08-24T10:46:13;100934.16;;;34.75;29.91
52032;BME280;38044;45.148;39.604;2023-08-24T10:53:46;100925.47;;;34.48;30.99
52032;BME280;38044;45.148;39.604;2023-08-24T10:56:14;100909.66;;;34.58;30.29
52032;BME280;38044;45.148;39.604;2023-08-24T10:58:41;100921.47;;;34.49;30.69
52032;BME280;38044;45.148;39.604;2023-08-24T11:01:07;100915.00;;;34.26;30.32
52032;BME280;38044;45.148;39.604;2023-08-24T11:03:39;100904.16;;;33.61;29.64
52032;BME280;38044;45.148;39.604;2023-08-24T11:06:21;100905.78;;;33.87;30.59
52032;BME280;38044;45.148;39.604;2023-08-24T11:08:49;100903.03;;;34.13;31.13
52032;BME280;38044;45.148;39.604;2023-08-24T11:11:23;100894.91;;;34.06;30.48
52032;BME280;38044;45.148;39.604;2023-08-24T11:14:17;100889.28;;;33.80;30.87
52032;BME280;38044;45.148;39.604;2023-08-24T11:16:53;100892.47;;;33.79;30.48
52032;BME280;38044;45.148;39.604;2023-08-24T11:19:19;100888.44;;;34.09;30.12
52032;BME280;38044;45.148;39.604;2023-08-24T11:21:46;100891.00;;;33.61;29.81
52032;BME280;38044;45.148;39.604;2023-08-24T11:24:13;100878.13;;;33.22;29.43
52032;BME280;38044;45.148;39.604;2023-08-24T11:26:41;100877.44;;;33.47;30.37
52032;BME280;38044;45.148;39.604;2023-08-24T11:29:08;100877.66;;;33.40;30.58
52032;BME280;38044;45.148;39.604;2023-08-24T11:31:35;100866.56;;;33.53;30.54
52032;BME280;38044;45.148;39.604;2023-08-24T11:34:01;100872.50;;;33.55;29.60
52032;BME280;38044;45.148;39.604;2023-08-24T11:36:28;100876.09;;;33.39;30.11
52032;BME280;38044;45.148;39.604;2023-08-24T11:38:57;100877.56;;;33.43;30.23
52032;BME280;38044;45.148;39.604;2023-08-24T11:41:24;100873.13;;;33.17;30.66
52032;BME280;38044;45.148;39.604;2023-08-24T11:43:59;100871.91;;;33.18;30.72
52032;BME280;38044;45.148;39.604;2023-08-24T11:46:25;100865.16;;;33.32;30.51
52032;BME280;38044;45.148;39.604;2023-08-24T11:48:52;100860.34;;;33.32;30.88
52032;BME280;38044;45.148;39.604;2023-08-24T11:51:18;100860.72;;;33.47;29.98
52032;BME280;38044;45.148;39.604;2023-08-24T11:53:46;100866.75;;;33.46;30.74
52032;BME280;38044;45.148;39.604;2023-08-24T11:56:13;100867.88;;;33.19;30.28
52032;BME280;38044;45.148;39.604;2023-08-24T11:58:42;100857.53;;;33.19;30.10
52032;BME280;38044;45.148;39.604;2023-08-24T12:01:10;100845.91;;;33.08;30.39
52032;BME280;38044;45.148;39.604;2023-08-24T12:03:40;100844.97;;;32.82;29.84
52032;BME280;38044;45.148;39.604;2023-08-24T12:06:14;100848.09;;;33.01;30.13
52032;BME280;38044;45.148;39.604;2023-08-24T12:08:41;100854.69;;;33.07;30.19
52032;BME280;38044;45.148;39.604;2023-08-24T12:11:17;100843.19;;;33.05;30.13
52032;BME280;38044;45.148;39.604;2023-08-24T12:13:54;100850.16;;;32.96;29.62
52032;BME280;38044;45.148;39.604;2023-08-24T12:16:22;100848.72;;;32.59;29.78
52032;BME280;38044;45.148;39.604;2023-08-24T12:18:56;100844.13;;;32.52;30.80
52032;BME280;38044;45.148;39.604;2023-08-24T12:21:25;100842.88;;;32.21;30.56
52032;BME280;38044;45.148;39.604;2023-08-24T12:23:59;100844.84;;;32.57;30.62
52032;BME280;38044;45.148;39.604;2023-08-24T12:26:27;100834.56;;;32.37;30.64
52032;BME280;38044;45.148;39.604;2023-08-24T12:28:55;100807.41;;;31.92;30.46
52032;BME280;38044;45.148;39.604;2023-08-24T12:31:26;100834.25;;;31.99;31.35
52032;BME280;38044;45.148;39.604;2023-08-24T12:34:01;100819.22;;;31.96;30.94
52032;BME280;38044;45.148;39.604;2023-08-24T12:36:27;100820.50;;;31.55;30.54
52032;BME280;38044;45.148;39.604;2023-08-24T12:38:53;100812.72;;;31.67;30.74
52032;BME280;38044;45.148;39.604;2023-08-24T12:41:19;100828.44;;;32.09;30.36
52032;BME280;38044;45.148;39.604;2023-08-24T12:43:45;100822.84;;;31.93;29.51
52032;BME280;38044;45.148;39.604;2023-08-24T12:46:11;100825.56;;;32.13;30.05
52032;BME280;38044;45.148;39.604;2023-08-24T12:48:37;100824.63;;;32.03;30.10
52032;BME280;38044;45.148;39.604;2023-08-24T12:51:02;100823.13;;;31.99;30.17
52032;BME280;38044;45.148;39.604;2023-08-24T12:53:28;100816.22;;;31.87;30.00
52032;BME280;38044;45.148;39.604;2023-08-24T12:55:54;100821.47;;;32.01;30.33
52032;BME280;38044;45.148;39.604;2023-08-24T12:58:20;100814.88;;;31.95;29.98